Time;durP1;ratioP1;P1;durP2;ratioP2;P2;SDS_P1;SDS_P2;PMS_P1;PMS_P2;Temp;Humidity;BMP_temperature;BMP_pressure;BME280_temperature;BME280_humidity;BME280_pressure;Samples;Min_cycle;Max_cycle;Signal;HPM_P1;HPM_P2
2024/01/30 00:02:13;;;;;;;115.75;108.95;;;11.50;99.90;;;;;;5030989;28;20041;-74
2024/01/30 00:04:39;;;;;;;109.93;103.07;;;11.50;99.90;;;;;;5031940;28;20030;-74
2024/01/30 00:07:05;;;;;;;110.82;104.30;;;11.50;99.90;;;;;;5031259;28;20037;-74
2024/01/30 00:09:31;;;;;;;116.03;108.90;;;11.40;99.90;;;;;;5038413;28;20045;-71
2024/01/30 00:11:57;;;;;;;116.63;109.90;;;11.50;99.90;;;;;;5051698;28;20037;-73
2024/01/30 00:14:23;;;;;;;122.40;115.10;;;11.40;99.90;;;;;;5051311;28;20040;-73
2024/01/30 00:16:51;;;;;;;121.40;114.10;;;11.40;99.90;;;;;;5050036;28;20515;-73
2024/01/30 00:19:17;;;;;;;120.45;113.25;;;11.40;99.90;;;;;;5050916;28;20052;-74
2024/01/30 00:21:43;;;;;;;107.75;101.47;;;11.30;99.90;;;;;;5051519;28;20036;-73
2024/01/30 00:24:09;;;;;;;116.78;109.75;;;11.40;99.90;;;;;;5051293;28;20024;-73
2024/01/30 00:26:35;;;;;;;121.47;114.07;;;11.40;99.90;;;;;;5051099;28;20039;-74
2024/01/30 00:29:01;;;;;;;109.20;102.35;;;11.30;99.90;;;;;;5004111;28;20037;-74
2024/01/30 00:31:28;;;;;;;114.85;108.00;;;11.40;99.90;;;;;;5041228;28;20037;-74
2024/01/30 00:33:54;;;;;;;115.05;107.80;;;11.50;99.90;;;;;;5050751;28;20407;-74
2024/01/30 00:36:20;;;;;;;122.70;115.70;;;11.50;99.90;;;;;;5047263;28;20028;-73
2024/01/30 00:38:46;;;;;;;127.00;119.28;;;11.50;99.90;;;;;;5050022;28;20056;-73
2024/01/30 00:41:12;;;;;;;125.82;117.80;;;11.50;99.90;;;;;;5051267;28;20025;-73
2024/01/30 00:43:38;;;;;;;128.02;120.65;;;11.60;99.90;;;;;;5051731;28;20036;-74
2024/01/30 00:46:04;;;;;;;130.40;122.43;;;11.60;99.90;;;;;;5042956;28;20030;-73
2024/01/30 00:48:30;;;;;;;136.25;128.30;;;11.50;99.90;;;;;;5037846;28;20455;-74
2024/01/30 00:50:56;;;;;;;133.65;125.90;;;11.60;99.90;;;;;;5051047;28;20025;-73
2024/01/30 00:53:22;;;;;;;117.18;110.40;;;11.50;99.90;;;;;;5051280;28;20482;-74
2024/01/30 00:55:48;;;;;;;132.00;124.32;;;11.40;99.90;;;;;;5050778;28;20028;-73
2024/01/30 00:58:15;;;;;;;125.30;117.60;;;11.40;99.90;;;;;;5050919;28;20479;-74
2024/01/30 01:00:41;;;;;;;130.35;122.78;;;11.40;99.90;;;;;;5049904;28;20119;-73
2024/01/30 01:03:07;;;;;;;130.95;123.47;;;11.20;99.90;;;;;;5051447;28;20033;-73
2024/01/30 01:05:33;;;;;;;131.20;123.47;;;11.20;99.90;;;;;;5042912;28;20044;-74
2024/01/30 01:07:59;;;;;;;126.50;118.43;;;11.20;99.90;;;;;;5050825;28;20036;-74
2024/01/30 01:10:25;;;;;;;122.95;115.88;;;11.20;99.90;;;;;;5050394;28;20067;-73
2024/01/30 01:12:51;;;;;;;128.70;120.53;;;11.20;99.90;;;;;;5050654;28;20052;-74
2024/01/30 01:15:17;;;;;;;112.72;105.93;;;11.10;99.90;;;;;;5049063;28;20036;-74
2024/01/30 01:17:43;;;;;;;111.60;105.20;;;11.10;99.90;;;;;;5035770;28;20479;-73
2024/01/30 01:20:10;;;;;;;111.20;104.32;;;11.10;99.90;;;;;;5050869;28;20088;-73
2024/01/30 01:22:38;;;;;;;120.93;113.63;;;11.20;99.90;;;;;;5030483;28;20061;-74
2024/01/30 01:25:08;;;;;;;153.95;145.18;;;11.20;99.90;;;;;;5042563;28;20044;-74
2024/01/30 01:27:34;;;;;;;114.65;107.93;;;11.20;99.90;;;;;;5016763;28;20024;-74
2024/01/30 01:30:01;;;;;;;122.72;115.32;;;11.20;99.90;;;;;;5033015;28;20045;-74
2024/01/30 01:32:27;;;;;;;113.88;107.50;;;11.20;99.90;;;;;;5032422;28;20044;-74
2024/01/30 01:34:53;;;;;;;98.40;92.35;;;11.20;99.90;;;;;;5051111;28;20040;-74
2024/01/30 01:37:22;;;;;;;103.82;97.63;;;11.30;99.90;;;;;;5033857;28;20464;-73
2024/01/30 01:39:48;;;;;;;101.75;95.95;;;11.30;99.90;;;;;;5034020;28;20038;-74
2024/01/30 01:42:14;;;;;;;102.43;95.95;;;11.30;99.90;;;;;;5051014;28;20041;-73
2024/01/30 01:44:40;;;;;;;123.13;116.28;;;11.20;99.90;;;;;;5053595;28;20037;-74
2024/01/30 01:47:06;;;;;;;105.15;98.90;;;11.30;99.90;;;;;;5037711;28;20037;-73
2024/01/30 01:49:32;;;;;;;106.82;100.60;;;11.30;99.90;;;;;;5018491;28;20400;-74
2024/01/30 01:51:58;;;;;;;121.25;114.63;;;11.30;99.90;;;;;;5053703;28;20025;-73
2024/01/30 01:54:25;;;;;;;123.00;116.00;;;11.30;99.90;;;;;;5054210;28;20394;-73
2024/01/30 01:56:51;;;;;;;116.85;110.15;;;11.40;99.90;;;;;;5019492;28;20508;-73
2024/01/30 01:59:18;;;;;;;108.80;102.72;;;11.40;99.90;;;;;;5019646;28;20081;-73
2024/01/30 02:01:45;;;;;;;114.80;108.10;;;11.50;99.90;;;;;;5035537;28;20037;-73
2024/01/30 02:04:11;;;;;;;96.82;91.43;;;11.50;99.90;;;;;;5053307;28;20498;-73
2024/01/30 02:06:37;;;;;;;91.50;85.88;;;11.50;99.90;;;;;;5046162;28;20048;-74
2024/01/30 02:09:04;;;;;;;96.45;90.93;;;11.40;99.90;;;;;;5035309;28;20100;-74
2024/01/30 02:11:30;;;;;;;95.80;90.20;;;11.50;99.90;;;;;;5053479;28;20053;-74
2024/01/30 02:13:56;;;;;;;110.65;104.28;;;11.50;99.90;;;;;;5036116;28;20029;-73
2024/01/30 02:16:22;;;;;;;109.60;103.38;;;11.50;99.90;;;;;;5043049;28;20041;-73
2024/01/30 02:18:48;;;;;;;103.53;97.88;;;11.50;99.90;;;;;;5049392;28;20448;-74
2024/01/30 02:21:16;;;;;;;107.30;101.22;;;11.60;99.90;;;;;;5052964;28;20104;-74
2024/01/30 02:23:43;;;;;;;111.32;105.13;;;11.60;99.90;;;;;;5053619;28;20036;-74
2024/01/30 02:26:09;;;;;;;105.13;99.30;;;11.60;99.90;;;;;;5008068;28;20025;-73
2024/01/30 02:28:35;;;;;;;104.47;98.65;;;11.60;99.90;;;;;;5052143;28;20051;-73
2024/01/30 02:31:01;;;;;;;119.03;111.60;;;11.60;99.90;;;;;;5052713;28;20491;-73
2024/01/30 02:33:28;;;;;;;144.82;136.65;;;11.60;99.90;;;;;;5053797;28;20032;-74
2024/01/30 02:35:54;;;;;;;142.10;133.77;;;11.60;99.90;;;;;;5046005;28;20038;-74
2024/01/30 02:38:20;;;;;;;163.27;154.18;;;11.60;99.90;;;;;;5044513;28;20048;-73
2024/01/30 02:40:47;;;;;;;148.57;140.27;;;11.60;99.90;;;;;;5053021;28;20032;-74
2024/01/30 02:43:13;;;;;;;159.80;151.18;;;11.60;99.90;;;;;;5053583;28;20025;-74
2024/01/30 02:45:39;;;;;;;175.30;166.02;;;11.70;99.90;;;;;;5047402;28;20034;-74
2024/01/30 02:48:05;;;;;;;181.30;171.18;;;11.70;99.90;;;;;;5042126;28;20029;-74
2024/01/30 02:50:31;;;;;;;157.77;148.98;;;11.70;99.90;;;;;;5051906;28;20029;-74
2024/01/30 02:52:57;;;;;;;145.00;137.07;;;11.70;99.90;;;;;;5053142;28;20033;-74
2024/01/30 02:55:24;;;;;;;178.82;168.68;;;11.70;99.90;;;;;;5050950;28;20033;-74
2024/01/30 02:57:50;;;;;;;158.98;149.98;;;11.80;99.90;;;;;;5039672;28;20040;-73
2024/01/30 03:00:16;;;;;;;144.20;136.15;;;11.80;99.90;;;;;;5051924;28;20033;-74
2024/01/30 03:02:42;;;;;;;138.13;130.32;;;11.80;99.90;;;;;;5049134;28;20029;-74
2024/01/30 03:05:08;;;;;;;143.75;135.60;;;11.80;99.90;;;;;;5041891;28;20044;-74
2024/01/30 03:07:34;;;;;;;153.93;145.30;;;11.80;99.90;;;;;;5049702;28;20033;-74
2024/01/30 03:10:00;;;;;;;169.82;160.45;;;11.80;99.90;;;;;;5030377;28;20045;-74
2024/01/30 03:12:26;;;;;;;165.05;156.00;;;11.80;99.90;;;;;;5031123;28;20064;-74
2024/01/30 03:14:52;;;;;;;160.65;151.65;;;11.80;99.90;;;;;;5031044;28;20033;-74
2024/01/30 03:17:18;;;;;;;164.10;154.98;;;11.80;99.90;;;;;;5023298;28;20420;-74
2024/01/30 03:19:44;;;;;;;160.23;151.50;;;11.80;99.90;;;;;;5031083;28;20033;-73
2024/01/30 03:22:11;;;;;;;159.68;150.88;;;11.80;99.90;;;;;;5030970;28;20392;-74
2024/01/30 03:24:37;;;;;;;148.85;140.70;;;11.90;99.90;;;;;;5031469;28;20041;-74
2024/01/30 03:27:03;;;;;;;135.60;127.57;;;11.90;99.90;;;;;;5028562;28;20388;-74
2024/01/30 03:29:29;;;;;;;122.88;115.82;;;11.90;99.90;;;;;;5031267;28;20041;-74
2024/01/30 03:31:55;;;;;;;124.15;117.20;;;11.90;99.90;;;;;;5030255;28;20040;-74
2024/01/30 03:34:21;;;;;;;120.57;113.65;;;12.00;99.90;;;;;;5030874;28;20033;-73
2024/01/30 03:36:47;;;;;;;126.22;118.88;;;12.00;99.90;;;;;;5031047;28;20487;-73
2024/01/30 03:39:13;;;;;;;135.10;127.57;;;12.00;99.90;;;;;;5032425;28;20045;-74
2024/01/30 03:41:42;;;;;;;150.55;142.18;;;12.00;99.90;;;;;;5032243;28;20511;-74
2024/01/30 03:44:08;;;;;;;142.63;134.50;;;12.00;99.90;;;;;;5043685;28;20045;-74
2024/01/30 03:46:35;;;;;;;136.35;128.88;;;12.00;99.90;;;;;;5028300;28;20038;-73
2024/01/30 03:49:01;;;;;;;156.57;147.70;;;12.00;99.90;;;;;;5027072;28;20034;-73
2024/01/30 03:51:27;;;;;;;152.20;143.65;;;12.10;99.90;;;;;;5031764;28;20041;-74
2024/01/30 03:53:53;;;;;;;174.05;164.43;;;12.10;99.90;;;;;;5032034;28;20036;-73
2024/01/30 03:56:19;;;;;;;163.30;154.32;;;12.10;99.90;;;;;;5031587;28;20384;-73
2024/01/30 03:58:45;;;;;;;153.40;145.05;;;12.10;99.90;;;;;;5031620;28;20052;-74
2024/01/30 04:01:14;;;;;;;167.55;158.07;;;12.10;99.90;;;;;;5030851;28;20373;-73
2024/01/30 04:03:41;;;;;;;158.45;149.85;;;12.10;99.90;;;;;;5031174;28;20048;-73
2024/01/30 04:06:08;;;;;;;145.18;136.52;;;12.10;99.90;;;;;;5023947;28;20487;-74
2024/01/30 04:08:34;;;;;;;148.25;139.82;;;12.00;99.90;;;;;;5022628;28;20041;-74
2024/01/30 04:11:05;;;;;;;150.57;142.13;;;12.00;99.90;;;;;;5050427;28;20048;-72
2024/01/30 04:13:32;;;;;;;;;;;12.00;99.90;;;;;;5052132;28;20028;-73
2024/01/30 04:16:02;;;;;;;179.52;169.80;;;12.00;99.90;;;;;;5050522;28;19912;-74
2024/01/30 04:18:28;;;;;;;146.68;138.50;;;12.00;99.90;;;;;;5033393;28;20399;-73
2024/01/30 04:20:55;;;;;;;139.10;131.52;;;11.90;99.90;;;;;;5051573;28;20021;-74
2024/01/30 04:23:21;;;;;;;130.00;122.47;;;12.00;99.90;;;;;;5051332;28;20037;-73
2024/01/30 04:25:47;;;;;;;131.95;124.50;;;11.90;99.90;;;;;;5028628;28;20029;-73
2024/01/30 04:28:13;;;;;;;140.18;132.48;;;11.80;99.90;;;;;;5039297;28;20056;-73
2024/01/30 04:30:39;;;;;;;135.75;128.13;;;11.90;99.90;;;;;;5050662;28;20033;-74
2024/01/30 04:33:05;;;;;;;133.18;125.82;;;11.90;99.90;;;;;;5050959;28;20044;-73
2024/01/30 04:35:31;;;;;;;143.75;135.52;;;11.90;99.90;;;;;;5033773;28;20077;-74
2024/01/30 04:37:57;;;;;;;125.10;117.95;;;11.90;99.90;;;;;;5005368;28;20049;-73
2024/01/30 04:40:24;;;;;;;160.77;151.60;;;11.80;99.90;;;;;;5033380;28;20036;-73
2024/01/30 04:42:50;;;;;;;156.75;147.73;;;11.90;99.90;;;;;;5033988;28;20029;-74
2024/01/30 04:45:16;;;;;;;169.63;160.23;;;11.80;99.90;;;;;;5048354;28;20399;-74
2024/01/30 04:47:42;;;;;;;127.30;119.93;;;11.80;99.90;;;;;;5034386;28;20048;-73
2024/01/30 04:50:08;;;;;;;121.40;114.38;;;11.80;99.90;;;;;;5051393;28;20380;-74
2024/01/30 04:52:35;;;;;;;116.57;110.13;;;11.80;99.90;;;;;;5050544;28;20411;-73
2024/01/30 04:55:01;;;;;;;115.55;109.18;;;11.80;99.90;;;;;;5051278;28;20396;-73
2024/01/30 04:57:27;;;;;;;115.85;109.30;;;11.80;99.90;;;;;;5014823;28;20476;-74
2024/01/30 04:59:53;;;;;;;112.10;106.05;;;11.80;99.90;;;;;;5032508;28;20040;-74
2024/01/30 05:02:20;;;;;;;112.35;106.18;;;11.80;99.90;;;;;;5050712;28;20033;-73
2024/01/30 05:04:46;;;;;;;109.35;103.28;;;11.80;99.90;;;;;;5051084;28;20033;-73
2024/01/30 05:07:12;;;;;;;107.47;100.82;;;11.80;99.90;;;;;;5050871;28;20028;-73
2024/01/30 05:09:38;;;;;;;106.43;100.38;;;11.80;99.90;;;;;;5051185;28;20045;-74
2024/01/30 05:12:04;;;;;;;105.97;99.55;;;11.70;99.90;;;;;;5051462;28;20068;-73
2024/01/30 05:14:30;;;;;;;104.95;99.15;;;11.80;99.90;;;;;;5054517;28;20040;-73
2024/01/30 05:16:56;;;;;;;105.82;99.70;;;11.70;99.90;;;;;;5039639;28;20041;-73
2024/01/30 05:19:23;;;;;;;106.32;99.90;;;11.70;99.90;;;;;;5050046;28;20040;-73
2024/01/30 05:21:49;;;;;;;108.53;102.25;;;11.80;99.90;;;;;;5053594;28;20045;-73
2024/01/30 05:24:15;;;;;;;105.15;99.03;;;11.70;99.90;;;;;;5065055;28;20035;-74
2024/01/30 05:26:42;;;;;;;106.32;99.95;;;11.70;99.90;;;;;;5031423;28;20048;-73
2024/01/30 05:29:08;;;;;;;103.95;97.80;;;11.70;99.90;;;;;;5047518;28;20487;-73
2024/01/30 05:31:34;;;;;;;106.90;100.90;;;11.80;99.90;;;;;;5054163;28;20033;-73
2024/01/30 05:34:00;;;;;;;110.00;103.43;;;11.80;99.90;;;;;;5061646;28;20040;-74
2024/01/30 05:36:27;;;;;;;112.05;105.90;;;11.80;99.90;;;;;;5062584;28;20036;-74
2024/01/30 05:38:53;;;;;;;108.43;101.80;;;11.80;99.90;;;;;;5053341;28;20041;-74
2024/01/30 05:41:20;;;;;;;107.47;101.35;;;11.80;99.90;;;;;;5054275;28;20029;-73
2024/01/30 05:43:46;;;;;;;109.10;102.70;;;11.80;99.90;;;;;;5036618;28;20025;-73
2024/01/30 05:46:13;;;;;;;115.35;103.22;;;11.90;99.90;;;;;;5045109;28;20037;-74
2024/01/30 05:48:39;;;;;;;106.82;100.65;;;11.80;99.90;;;;;;5042605;28;20028;-73
2024/01/30 05:51:06;;;;;;;111.60;105.15;;;11.80;99.90;;;;;;5054094;28;20040;-73
2024/01/30 05:53:32;;;;;;;108.20;102.13;;;11.90;99.90;;;;;;5036894;28;20040;-74
2024/01/30 05:55:59;;;;;;;106.88;100.65;;;11.90;99.90;;;;;;5053962;28;20033;-74
2024/01/30 05:58:25;;;;;;;109.13;102.85;;;11.90;99.90;;;;;;5035496;28;20068;-74
2024/01/30 06:00:51;;;;;;;107.90;101.28;;;11.90;99.90;;;;;;5052664;28;20036;-74
2024/01/30 06:03:18;;;;;;;111.45;105.10;;;11.80;99.90;;;;;;5053347;28;20052;-74
2024/01/30 06:05:44;;;;;;;107.97;101.63;;;11.90;99.90;;;;;;5047996;28;20037;-73
2024/01/30 06:08:10;;;;;;;110.90;104.55;;;12.00;99.90;;;;;;5036662;28;20041;-74
2024/01/30 06:10:36;;;;;;;114.68;108.28;;;12.00;99.90;;;;;;5053572;28;20049;-73
2024/01/30 06:13:02;;;;;;;118.60;111.57;;;12.00;99.90;;;;;;5036047;28;20025;-74
2024/01/30 06:15:29;;;;;;;120.80;114.32;;;12.10;99.90;;;;;;5032347;28;20518;-74
2024/01/30 06:17:55;;;;;;;121.82;114.32;;;12.10;99.90;;;;;;5033475;28;20042;-74
2024/01/30 06:20:21;;;;;;;118.53;111.65;;;12.00;99.90;;;;;;5053113;28;20025;-73
2024/01/30 06:22:48;;;;;;;115.97;109.43;;;12.10;99.90;;;;;;5053731;28;20036;-74
2024/01/30 06:25:14;;;;;;;119.10;112.45;;;12.10;99.90;;;;;;5056521;28;20033;-74
2024/01/30 06:27:40;;;;;;;122.45;115.35;;;12.00;99.90;;;;;;5053031;28;20383;-74
2024/01/30 06:30:06;;;;;;;117.05;110.45;;;12.10;99.90;;;;;;5051877;28;20064;-73
2024/01/30 06:32:34;;;;;;;120.82;114.07;;;12.10;99.90;;;;;;5053284;28;20395;-75
2024/01/30 06:35:01;;;;;;;115.13;108.53;;;12.10;99.90;;;;;;5052409;28;20480;-74
2024/01/30 06:37:27;;;;;;;120.50;113.40;;;12.00;99.90;;;;;;5053126;28;20379;-73
2024/01/30 06:39:53;;;;;;;124.72;117.35;;;12.00;99.90;;;;;;5053391;28;20037;-74
2024/01/30 06:42:19;;;;;;;122.65;115.38;;;12.00;99.90;;;;;;5047826;28;20379;-74
2024/01/30 06:44:45;;;;;;;118.10;111.00;;;12.00;99.90;;;;;;5052901;28;20032;-74
2024/01/30 06:47:11;;;;;;;114.40;107.65;;;11.90;99.90;;;;;;5051774;28;20037;-74
2024/01/30 06:49:42;;;;;;;110.80;104.05;;;11.90;99.90;;;;;;5053511;28;20096;-74
2024/01/30 06:52:08;;;;;;;110.88;103.38;;;11.90;99.90;;;;;;5036949;28;20033;-73
2024/01/30 06:54:34;;;;;;;108.55;101.85;;;11.90;99.90;;;;;;5041799;28;20471;-73
2024/01/30 06:57:00;;;;;;;111.22;104.15;;;11.90;99.90;;;;;;5029573;28;20491;-73
2024/01/30 06:59:26;;;;;;;107.53;101.10;;;11.80;99.90;;;;;;5053252;28;20101;-73
2024/01/30 07:01:52;;;;;;;112.05;104.63;;;11.80;99.90;;;;;;5051926;28;20530;-73
2024/01/30 07:04:18;;;;;;;105.88;98.95;;;11.90;99.90;;;;;;5053199;28;20041;-74
2024/01/30 07:06:44;;;;;;;106.72;99.97;;;11.80;99.90;;;;;;5034329;28;21704;-73
2024/01/30 07:09:11;;;;;;;132.98;124.97;;;11.90;99.90;;;;;;5053002;28;20044;-73
2024/01/30 07:11:38;;;;;;;108.25;101.03;;;11.90;99.90;;;;;;5050754;28;20503;-73
2024/01/30 07:14:04;;;;;;;106.93;99.28;;;11.80;99.90;;;;;;5051464;28;20036;-73
2024/01/30 07:16:30;;;;;;;112.43;105.32;;;11.80;99.90;;;;;;5050779;28;20427;-73
2024/01/30 07:18:56;;;;;;;102.82;96.38;;;11.90;99.90;;;;;;5034777;28;20044;-73
2024/01/30 07:21:27;;;;;;;108.63;101.72;;;11.90;99.90;;;;;;5051807;28;20021;-73
2024/01/30 07:23:56;;;;;;;153.95;144.13;;;11.80;99.90;;;;;;5040162;28;20404;-73
2024/01/30 07:26:22;;;;;;;158.35;148.32;;;11.80;99.90;;;;;;5049178;28;20495;-72
2024/01/30 07:28:49;;;;;;;130.10;122.13;;;11.80;99.90;;;;;;5045278;28;20044;-73
2024/01/30 07:31:16;;;;;;;113.47;105.95;;;11.80;99.90;;;;;;5026868;28;20033;-73
2024/01/30 07:33:42;;;;;;;113.05;105.90;;;11.80;99.90;;;;;;5050385;28;20025;-73
2024/01/30 07:36:08;;;;;;;130.40;121.97;;;11.80;99.90;;;;;;5051479;28;20029;-73
2024/01/30 07:38:34;;;;;;;145.93;136.95;;;11.90;99.90;;;;;;5047576;28;20396;-73
2024/01/30 07:41:00;;;;;;;128.32;120.15;;;11.80;99.90;;;;;;5045053;28;20084;-73
2024/01/30 07:43:26;;;;;;;139.02;130.70;;;11.80;99.90;;;;;;5052364;28;20029;-73
2024/01/30 07:45:52;;;;;;;142.73;133.95;;;11.80;99.90;;;;;;5051373;28;20025;-73
2024/01/30 07:48:18;;;;;;;121.80;113.20;;;11.80;99.90;;;;;;5052255;28;20033;-73
2024/01/30 07:50:44;;;;;;;116.43;108.53;;;11.80;99.90;;;;;;5051575;28;20037;-73
2024/01/30 07:53:11;;;;;;;117.28;109.20;;;11.80;99.90;;;;;;5052228;28;20021;-73
2024/01/30 07:55:37;;;;;;;151.38;142.23;;;11.80;99.90;;;;;;5030066;28;20048;-73
2024/01/30 07:58:04;;;;;;;112.47;104.97;;;11.90;99.90;;;;;;5051823;28;20048;-73
2024/01/30 08:00:30;;;;;;;588.00;164.82;;;12.00;99.90;;;;;;5034162;28;20040;-73
2024/01/30 08:02:56;;;;;;;116.10;101.43;;;11.90;99.90;;;;;;5033675;28;20037;-73
2024/01/30 08:05:23;;;;;;;112.60;104.90;;;11.90;99.90;;;;;;5051441;28;20752;-73
2024/01/30 08:07:49;;;;;;;123.50;115.43;;;11.90;99.90;;;;;;5051245;28;20064;-73
2024/01/30 08:10:15;;;;;;;122.70;114.00;;;11.90;99.90;;;;;;5050996;28;20048;-74
2024/01/30 08:12:41;;;;;;;92.43;84.80;;;11.90;99.90;;;;;;5051069;28;20121;-73
2024/01/30 08:15:08;;;;;;;108.70;100.95;;;11.90;99.90;;;;;;5051113;28;20525;-73
2024/01/30 08:17:34;;;;;;;110.35;102.82;;;11.90;99.90;;;;;;5051664;28;20459;-72
2024/01/30 08:20:00;;;;;;;104.60;96.90;;;11.90;99.90;;;;;;5051268;28;20060;-74
2024/01/30 08:22:26;;;;;;;93.35;87.20;;;11.90;99.90;;;;;;5050815;28;20134;-74
2024/01/30 08:24:52;;;;;;;146.18;136.45;;;12.00;99.90;;;;;;5042152;28;20033;-73
2024/01/30 08:27:18;;;;;;;221.52;208.13;;;11.90;99.90;;;;;;5047924;28;20032;-74
2024/01/30 08:29:44;;;;;;;196.50;183.93;;;11.90;99.90;;;;;;5049169;28;20419;-74
2024/01/30 08:32:10;;;;;;;112.55;104.82;;;11.90;99.90;;;;;;5045272;28;20025;-74
2024/01/30 08:34:36;;;;;;;118.40;110.22;;;12.00;99.90;;;;;;5051625;28;20036;-74
2024/01/30 08:37:03;;;;;;;152.10;141.77;;;12.00;99.90;;;;;;5049409;28;20033;-73
2024/01/30 08:39:30;;;;;;;196.23;184.30;;;12.00;99.90;;;;;;5051433;28;20037;-74
2024/01/30 08:41:56;;;;;;;194.52;182.55;;;12.00;99.90;;;;;;5050632;28;20460;-73
2024/01/30 08:44:22;;;;;;;206.98;193.73;;;12.00;99.90;;;;;;5047842;28;20041;-75
2024/01/30 08:46:49;;;;;;;229.88;215.63;;;12.00;99.90;;;;;;5050683;28;20510;-73
2024/01/30 08:49:20;;;;;;;140.73;130.88;;;12.10;99.90;;;;;;5053494;28;20056;-73
2024/01/30 08:51:46;;;;;;;123.13;114.73;;;12.10;99.90;;;;;;5040267;28;20377;-73
2024/01/30 08:54:12;;;;;;;144.80;135.57;;;12.10;99.90;;;;;;5038511;28;20025;-73
2024/01/30 08:56:38;;;;;;;114.50;106.82;;;12.00;99.90;;;;;;5037477;28;20033;-74
2024/01/30 08:59:04;;;;;;;295.95;278.33;;;12.00;99.90;;;;;;5055665;28;20400;-74
2024/01/30 09:01:30;;;;;;;353.65;332.17;;;12.00;99.90;;;;;;5054793;28;20041;-73
2024/01/30 09:03:56;;;;;;;256.45;240.80;;;12.00;99.90;;;;;;5054802;28;20393;-73
2024/01/30 09:06:23;;;;;;;358.83;337.08;;;12.00;99.90;;;;;;5054729;28;20035;-73
2024/01/30 09:08:50;;;;;;;219.27;206.30;;;11.90;99.90;;;;;;5055424;28;20040;-73
2024/01/30 09:11:16;;;;;;;184.38;173.32;;;12.00;99.90;;;;;;5054899;28;20380;-73
2024/01/30 09:13:43;;;;;;;367.08;346.48;;;12.00;99.90;;;;;;5037635;28;20400;-73
2024/01/30 09:16:09;;;;;;;296.40;279.65;;;12.00;99.90;;;;;;5054582;28;20048;-73
2024/01/30 09:18:35;;;;;;;219.20;207.00;;;12.00;99.90;;;;;;5055219;28;20108;-73
2024/01/30 09:21:01;;;;;;;343.38;323.95;;;12.00;99.90;;;;;;5054425;28;20040;-73
2024/01/30 09:23:27;;;;;;;190.32;179.65;;;12.00;99.90;;;;;;5036960;28;20055;-74
2024/01/30 09:25:53;;;;;;;165.68;156.48;;;11.90;99.90;;;;;;5020496;28;20032;-73
2024/01/30 09:28:19;;;;;;;148.30;139.93;;;12.00;99.90;;;;;;5055157;28;20029;-73
2024/01/30 09:30:46;;;;;;;242.00;229.23;;;12.00;99.90;;;;;;5051089;28;20048;-73
2024/01/30 09:33:12;;;;;;;236.13;222.93;;;12.00;99.90;;;;;;5043655;28;20033;-73
2024/01/30 09:35:38;;;;;;;224.75;211.88;;;12.00;99.90;;;;;;5054282;28;20079;-73
2024/01/30 09:38:04;;;;;;;148.65;140.88;;;12.00;99.90;;;;;;5053541;28;20032;-73
2024/01/30 09:40:30;;;;;;;180.85;171.07;;;12.00;99.90;;;;;;5052991;28;20041;-73
2024/01/30 09:42:56;;;;;;;147.73;139.55;;;12.00;99.90;;;;;;5052540;28;20044;-75
2024/01/30 09:45:25;;;;;;;184.90;175.10;;;12.00;99.90;;;;;;5033980;28;20052;-73
2024/01/30 09:47:52;;;;;;;181.88;172.40;;;12.00;99.90;;;;;;5043756;28;20048;-73
2024/01/30 09:50:18;;;;;;;196.73;186.05;;;12.00;99.90;;;;;;5035782;28;20056;-73
2024/01/30 09:52:44;;;;;;;170.27;161.23;;;12.00;99.90;;;;;;5036661;28;20124;-73
2024/01/30 09:55:10;;;;;;;168.63;159.85;;;12.00;99.90;;;;;;5019419;28;20033;-74
2024/01/30 09:57:37;;;;;;;123.65;117.10;;;12.00;99.90;;;;;;5020625;28;20033;-73
2024/01/30 10:00:04;;;;;;;139.95;132.50;;;12.00;99.90;;;;;;5052102;28;20036;-71
2024/01/30 10:02:33;;;;;;;197.15;186.93;;;12.00;99.90;;;;;;5051455;28;20399;-73
2024/01/30 10:04:59;;;;;;;126.45;119.70;;;12.00;99.90;;;;;;5051011;28;20040;-74
2024/01/30 10:07:25;;;;;;;119.18;113.07;;;12.10;99.90;;;;;;5031291;28;20059;-73
2024/01/30 10:09:51;;;;;;;111.70;106.05;;;12.00;99.90;;;;;;5053893;28;20033;-73
2024/01/30 10:12:17;;;;;;;102.60;97.40;;;12.00;99.90;;;;;;5030807;28;20036;-74
2024/01/30 10:14:43;;;;;;;105.20;99.82;;;12.10;99.90;;;;;;5053956;28;20029;-74
2024/01/30 10:17:09;;;;;;;123.97;117.65;;;12.10;99.90;;;;;;5052355;28;20033;-74
2024/01/30 10:19:37;;;;;;;147.88;139.77;;;12.10;99.90;;;;;;5053639;28;20391;-74
2024/01/30 10:22:04;;;;;;;120.93;114.45;;;12.00;99.90;;;;;;5017168;28;20036;-74
2024/01/30 10:24:30;;;;;;;111.40;105.55;;;11.80;99.90;;;;;;5050368;28;20052;-74
2024/01/30 10:26:56;;;;;;;126.40;119.78;;;11.70;99.90;;;;;;5052702;28;20147;-77
2024/01/30 10:29:22;;;;;;;145.88;138.32;;;11.70;99.90;;;;;;5052827;28;20475;-73
2024/01/30 10:31:58;;;;;;;130.57;123.88;;;11.60;99.90;;;;;;5039603;28;20415;-73
2024/01/30 10:34:25;;;;;;;205.15;194.10;;;11.50;99.90;;;;;;5015675;28;20045;-73
2024/01/30 10:36:51;;;;;;;124.28;117.47;;;11.50;99.90;;;;;;5036120;28;20049;-73
2024/01/30 10:39:17;;;;;;;200.93;190.45;;;11.50;99.90;;;;;;5019033;28;20060;-73
2024/01/30 10:41:44;;;;;;;92.60;87.82;;;11.60;99.90;;;;;;5040996;28;20038;-73
2024/01/30 10:44:10;;;;;;;93.85;89.10;;;11.70;99.90;;;;;;5033338;28;20052;-73
2024/01/30 10:46:39;;;;;;;124.22;117.60;;;11.80;99.90;;;;;;5033194;28;20400;-73
2024/01/30 10:49:06;;;;;;;206.93;195.40;;;11.70;99.90;;;;;;4999719;28;20038;-73
2024/01/30 10:51:32;;;;;;;141.40;133.60;;;11.70;99.90;;;;;;5037589;28;20056;-73
2024/01/30 10:53:58;;;;;;;100.18;94.93;;;11.70;99.90;;;;;;5073662;28;20028;-73
2024/01/30 10:56:25;;;;;;;117.45;111.03;;;11.80;99.90;;;;;;5052867;28;20488;-73
2024/01/30 10:58:57;;;;;;;120.65;114.25;;;11.90;99.90;;;;;;5015870;28;20061;-73
2024/01/30 11:01:23;;;;;;;116.18;109.90;;;11.80;99.90;;;;;;5032698;28;20507;-73
2024/01/30 11:03:53;;;;;;;102.45;96.47;;;11.80;99.90;;;;;;5015589;28;20040;-73
2024/01/30 11:06:22;;;;;;;138.52;131.30;;;11.80;99.90;;;;;;5020736;28;20049;-73
2024/01/30 11:09:09;;;;;;;150.50;142.77;;;11.70;99.90;;;;;;5015571;28;20380;-73
2024/01/30 11:12:00;;;;;;;185.13;175.48;;;11.70;99.90;;;;;;5031913;28;20057;-73
2024/01/30 11:14:26;;;;;;;136.35;129.27;;;11.70;99.90;;;;;;5032853;28;20484;-73
2024/01/30 11:16:53;;;;;;;141.93;134.60;;;11.80;99.90;;;;;;5032231;28;20041;-73
2024/01/30 11:19:31;;;;;;;141.80;134.57;;;11.70;99.90;;;;;;5032183;28;20053;-73
2024/01/30 11:21:57;;;;;;;150.38;142.65;;;11.70;99.90;;;;;;5038573;28;20048;-73
2024/01/30 11:24:24;;;;;;;117.70;111.78;;;11.90;99.90;;;;;;5063179;28;20040;-73
2024/01/30 11:26:55;;;;;;;184.88;175.35;;;12.00;99.90;;;;;;5051766;28;20056;-73
2024/01/30 11:29:24;;;;;;;184.27;174.85;;;11.90;99.90;;;;;;5052666;28;20039;-73
2024/01/30 11:31:57;;;;;;;179.52;170.30;;;11.90;99.90;;;;;;5033797;28;20040;-73
2024/01/30 11:34:23;;;;;;;1999.90;999.90;;;12.00;99.90;;;;;;5051946;28;20032;-73
2024/01/30 11:36:58;;;;;;;1999.90;999.90;;;12.10;99.90;;;;;;5050749;28;20387;-73
2024/01/30 11:39:26;;;;;;;1999.90;999.90;;;12.10;99.90;;;;;;5051990;28;20373;-73
2024/01/30 11:41:59;;;;;;;607.00;351.65;;;12.20;99.90;;;;;;5089403;27;20390;-74
2024/01/30 11:44:25;;;;;;;1999.90;999.90;;;12.40;99.90;;;;;;5089827;28;20028;-74
2024/01/30 11:46:52;;;;;;;1999.90;999.90;;;12.40;99.90;;;;;;5057230;28;20379;-74
2024/01/30 11:49:18;;;;;;;1999.90;999.90;;;12.40;99.90;;;;;;5049383;28;20044;-74
2024/01/30 11:51:48;;;;;;;1999.90;999.90;;;12.50;99.90;;;;;;5048572;28;20032;-73
2024/01/30 11:54:15;;;;;;;1999.90;999.90;;;12.30;99.90;;;;;;5048624;28;20044;-74
2024/01/30 11:56:42;;;;;;;1999.90;999.90;;;12.30;99.90;;;;;;5048607;28;20410;-74
2024/01/30 11:59:08;;;;;;;1999.90;999.90;;;12.30;99.90;;;;;;5048770;28;20052;-74
2024/01/30 12:01:34;;;;;;;1999.90;999.90;;;12.20;99.90;;;;;;5047959;28;20493;-74
2024/01/30 12:04:00;;;;;;;1999.90;999.90;;;12.10;99.90;;;;;;5049072;28;20025;-74
2024/01/30 12:06:27;;;;;;;1999.90;999.90;;;12.10;99.90;;;;;;5048761;28;20033;-74